Time;durP1;ratioP1;P1;durP2;ratioP2;P2;SDS_P1;SDS_P2;PMS_P1;PMS_P2;Temp;Humidity;BMP_temperature;BMP_pressure;BME280_temperature;BME280_humidity;BME280_pressure;Samples;Min_cycle;Max_cycle;Signal;HPM_P1;HPM_P2
2021/12/10 00:00:04;;;;;;;52.22;33.00;;;4.90;99.90;;;;;;4980565;28;20418;-85
2021/12/10 00:02:34;;;;;;;58.30;35.58;;;4.80;99.90;;;;;;4982506;28;20046;-85
2021/12/10 00:05:03;;;;;;;55.25;33.13;;;4.90;99.90;;;;;;4983336;28;20050;-85
2021/12/10 00:07:29;;;;;;;52.78;33.88;;;4.90;99.90;;;;;;4981550;28;20050;-85
2021/12/10 00:09:59;;;;;;;53.35;33.65;;;4.90;99.90;;;;;;4950013;28;20481;-85
2021/12/10 00:12:30;;;;;;;55.67;32.30;;;5.30;99.90;;;;;;4980977;28;20108;-85
2021/12/10 00:14:56;;;;;;;52.20;32.83;;;5.30;99.90;;;;;;4998151;28;20375;-85
2021/12/10 00:17:23;;;;;;;54.78;32.83;;;4.90;99.90;;;;;;4997930;28;20069;-85
2021/12/10 00:19:53;;;;;;;59.60;34.67;;;4.90;99.90;;;;;;4981522;28;20043;-85
2021/12/10 00:22:32;;;;;;;54.45;35.72;;;5.10;99.90;;;;;;4981520;28;20046;-85
2021/12/10 00:24:57;;;;;;;53.55;33.53;;;4.90;99.90;;;;;;4997450;28;20046;-85
2021/12/10 00:27:32;;;;;;;54.05;33.25;;;5.00;99.90;;;;;;4948250;28;20053;-85
2021/12/10 00:30:07;;;;;;;51.92;33.17;;;5.00;99.90;;;;;;4965915;28;20402;-85
2021/12/10 00:32:39;;;;;;;52.78;33.20;;;5.00;99.90;;;;;;4997534;28;20042;-85
2021/12/10 00:35:10;;;;;;;;;;;5.00;99.90;;;;;;4965360;28;20084;-85
2021/12/10 00:37:36;;;;;;;57.08;36.13;;;4.90;99.90;;;;;;4964936;28;20277;-85
2021/12/10 00:40:06;;;;;;;55.22;35.65;;;4.90;99.90;;;;;;4981194;28;20177;-85
2021/12/10 00:42:34;;;;;;;56.05;35.25;;;4.80;99.90;;;;;;4981071;28;20102;-85
2021/12/10 00:45:05;;;;;;;57.70;36.65;;;4.80;99.90;;;;;;4981108;28;20073;-85
2021/12/10 00:47:31;;;;;;;60.13;34.90;;;4.80;99.90;;;;;;4981609;28;20042;-85
2021/12/10 00:49:58;;;;;;;56.65;34.45;;;4.80;99.90;;;;;;4965009;28;20038;-85
2021/12/10 00:52:24;;;;;;;51.70;32.90;;;4.80;99.90;;;;;;4981690;28;20096;-85
2021/12/10 00:54:50;;;;;;;49.38;31.15;;;5.10;99.90;;;;;;4981185;28;20034;-85
2021/12/10 00:57:16;;;;;;;45.15;27.80;;;4.80;99.90;;;;;;4965557;28;20038;-85
2021/12/10 00:59:44;;;;;;;51.58;33.03;;;4.80;99.90;;;;;;4965533;28;20054;-85
2021/12/10 01:02:14;;;;;;;47.20;30.23;;;4.80;99.90;;;;;;4965652;28;20042;-85
2021/12/10 01:04:43;;;;;;;47.50;29.73;;;4.80;99.90;;;;;;4997595;28;20046;-85
2021/12/10 01:07:14;;;;;;;42.03;27.92;;;4.80;99.90;;;;;;4997805;28;20494;-85
2021/12/10 01:09:45;;;;;;;41.67;26.27;;;4.80;99.90;;;;;;4981572;28;20042;-85
2021/12/10 01:12:19;;;;;;;40.53;25.95;;;4.80;99.90;;;;;;4978727;28;20107;-85
2021/12/10 01:15:18;;;;;;;39.80;26.55;;;4.80;99.90;;;;;;4998003;28;20482;-85
2021/12/10 01:24:36;;;;;;;35.35;21.95;;;4.90;99.90;;;;;;4922751;29;20047;-85
2021/12/10 01:27:09;;;;;;;38.70;24.67;;;5.00;99.90;;;;;;4921769;29;20143;-85
2021/12/10 01:29:43;;;;;;;38.42;23.23;;;4.90;99.90;;;;;;4966167;28;20051;-85
2021/12/10 01:32:15;;;;;;;36.53;23.65;;;5.20;99.90;;;;;;4996700;28;20042;-85
2021/12/10 01:34:42;;;;;;;40.20;22.65;;;4.90;99.90;;;;;;4997473;28;20034;-85
2021/12/10 01:37:09;;;;;;;33.03;21.65;;;4.90;99.90;;;;;;4965294;28;20486;-85
2021/12/10 01:39:38;;;;;;;33.72;20.90;;;4.80;99.90;;;;;;4964855;28;20041;-85
2021/12/10 01:42:19;;;;;;;30.35;21.17;;;4.90;99.90;;;;;;4963963;28;20430;-85
2021/12/10 01:44:50;;;;;;;33.08;19.55;;;4.90;99.90;;;;;;4979983;28;20038;-85
2021/12/10 01:47:19;;;;;;;33.13;19.02;;;5.00;99.90;;;;;;4980650;28;20053;-85
2021/12/10 01:49:45;;;;;;;33.33;21.02;;;4.90;99.90;;;;;;4980716;28;20049;-85
2021/12/10 01:52:15;;;;;;;29.13;19.70;;;4.90;99.90;;;;;;4979955;28;20113;-85
2021/12/10 01:54:51;;;;;;;31.17;20.58;;;4.90;99.90;;;;;;4964051;28;20042;-85
2021/12/10 01:57:19;;;;;;;28.52;17.77;;;4.80;99.90;;;;;;4963600;28;20034;-85
2021/12/10 01:59:47;;;;;;;29.63;19.00;;;4.80;99.90;;;;;;4963986;28;20082;-85
2021/12/10 02:02:23;;;;;;;30.13;20.23;;;4.80;99.90;;;;;;4996125;28;20042;-85
2021/12/10 02:04:50;;;;;;;31.83;20.55;;;4.80;99.90;;;;;;4964275;28;20034;-85
2021/12/10 02:07:23;;;;;;;31.33;20.85;;;4.70;99.90;;;;;;4964808;28;20509;-85
2021/12/10 02:09:50;;;;;;;30.48;20.00;;;4.70;99.90;;;;;;4964529;28;20053;-85
2021/12/10 02:12:18;;;;;;;32.47;20.33;;;4.70;99.90;;;;;;4995523;28;20043;-85
2021/12/10 02:14:59;;;;;;;35.97;21.50;;;4.70;99.90;;;;;;4980617;28;20054;-85
2021/12/10 02:17:33;;;;;;;30.15;19.13;;;4.60;99.90;;;;;;4965183;28;20042;-85
2021/12/10 02:20:08;;;;;;;32.78;18.75;;;4.60;99.90;;;;;;4964154;28;20092;-85
2021/12/10 02:22:34;;;;;;;29.58;18.10;;;4.70;99.90;;;;;;4963708;28;20118;-85
2021/12/10 02:25:01;;;;;;;30.70;17.42;;;4.70;99.90;;;;;;4964047;28;20505;-85
2021/12/10 02:27:26;;;;;;;29.88;18.63;;;4.80;99.90;;;;;;4979546;28;20046;-85
2021/12/10 02:29:52;;;;;;;28.15;16.70;;;4.70;99.90;;;;;;4979254;28;20070;-85
2021/12/10 02:32:18;;;;;;;33.00;18.48;;;4.70;99.90;;;;;;4979261;28;20521;-85
2021/12/10 02:34:46;;;;;;;28.65;17.85;;;4.70;99.90;;;;;;4963445;28;20573;-85
2021/12/10 02:37:12;;;;;;;27.92;17.63;;;4.60;99.90;;;;;;4995080;28;20050;-85
2021/12/10 02:39:38;;;;;;;29.55;18.10;;;4.60;99.90;;;;;;4963300;28;20090;-85
2021/12/10 02:42:04;;;;;;;29.05;18.50;;;4.70;99.90;;;;;;4978049;28;20485;-85
2021/12/10 02:44:31;;;;;;;32.28;18.45;;;4.60;99.90;;;;;;4963994;28;20053;-85
2021/12/10 02:46:57;;;;;;;27.20;17.73;;;4.60;99.90;;;;;;4962866;28;20486;-85
2021/12/10 02:49:26;;;;;;;28.17;17.10;;;4.70;99.90;;;;;;4995310;28;20045;-85
2021/12/10 02:51:53;;;;;;;29.73;17.35;;;4.70;99.90;;;;;;4962599;28;20046;-85
2021/12/10 02:54:23;;;;;;;31.52;17.52;;;4.70;99.90;;;;;;4978685;28;20045;-85
2021/12/10 02:56:51;;;;;;;29.33;18.55;;;4.70;99.90;;;;;;4962362;28;20533;-85
2021/12/10 02:59:18;;;;;;;31.00;16.63;;;4.70;99.90;;;;;;4962497;28;20069;-85
2021/12/10 03:01:47;;;;;;;30.80;16.55;;;4.80;99.90;;;;;;4978765;28;20494;-85
2021/12/10 03:04:14;;;;;;;25.98;15.98;;;4.80;99.90;;;;;;4994126;28;20046;-85
2021/12/10 03:06:49;;;;;;;27.13;17.33;;;4.90;99.90;;;;;;4962660;28;20489;-85
2021/12/10 03:09:17;;;;;;;27.80;16.88;;;4.90;99.90;;;;;;4995110;28;20034;-85
2021/12/10 03:11:48;;;;;;;31.05;20.45;;;4.90;99.90;;;;;;4993940;28;20045;-85
2021/12/10 03:14:16;;;;;;;35.45;20.65;;;4.80;99.90;;;;;;4962849;28;20034;-85
2021/12/10 03:16:44;;;;;;;32.30;19.80;;;4.90;99.90;;;;;;4994313;28;20038;-85
2021/12/10 03:19:11;;;;;;;29.52;18.67;;;5.00;99.90;;;;;;4962845;28;20105;-85
2021/12/10 03:21:39;;;;;;;35.63;21.48;;;4.80;99.90;;;;;;4978569;28;20393;-85
2021/12/10 03:24:06;;;;;;;35.58;21.17;;;4.90;99.90;;;;;;4978681;28;20050;-85
2021/12/10 03:26:32;;;;;;;33.60;22.20;;;4.80;99.90;;;;;;4961436;28;20046;-85
2021/12/10 03:28:58;;;;;;;32.75;21.48;;;4.80;99.90;;;;;;4962390;28;20042;-85
2021/12/10 03:31:26;;;;;;;33.38;21.05;;;4.90;99.90;;;;;;4978726;28;20042;-85
2021/12/10 03:33:54;;;;;;;34.88;22.10;;;4.80;99.90;;;;;;4962851;28;20042;-85
2021/12/10 03:36:20;;;;;;;33.22;22.27;;;4.70;99.90;;;;;;4998265;28;20046;-85
2021/12/10 03:38:47;;;;;;;38.10;23.95;;;4.80;99.90;;;;;;4966318;28;20084;-85
2021/12/10 03:41:13;;;;;;;35.17;22.92;;;4.80;99.90;;;;;;4997498;28;20042;-85
2021/12/10 03:43:40;;;;;;;33.80;21.77;;;5.50;99.90;;;;;;4966876;28;20102;-86
2021/12/10 03:46:07;;;;;;;36.08;22.50;;;4.80;99.90;;;;;;4982303;28;20046;-85
2021/12/10 03:48:40;;;;;;;29.48;19.27;;;4.80;99.90;;;;;;4966570;28;20046;-85
2021/12/10 03:51:09;;;;;;;33.47;20.95;;;4.80;99.90;;;;;;4966642;28;20101;-85
2021/12/10 03:53:35;;;;;;;30.15;20.88;;;4.80;99.90;;;;;;4998539;28;20043;-85
2021/12/10 03:56:07;;;;;;;29.85;19.83;;;4.70;99.90;;;;;;4964547;28;20038;-85
2021/12/10 03:58:33;;;;;;;30.42;19.58;;;4.70;99.90;;;;;;4994410;28;20058;-85
2021/12/10 04:01:00;;;;;;;32.30;21.80;;;4.70;99.90;;;;;;4978530;28;20521;-85
2021/12/10 04:03:28;;;;;;;31.40;21.20;;;4.70;99.90;;;;;;4994363;28;20450;-85
2021/12/10 04:05:54;;;;;;;31.40;23.20;;;4.60;99.90;;;;;;4978247;28;20079;-85
2021/12/10 04:08:21;;;;;;;33.78;21.45;;;4.60;99.90;;;;;;4962006;28;20034;-85
2021/12/10 04:10:49;;;;;;;33.05;21.55;;;4.60;99.90;;;;;;4977418;28;20042;-84
2021/12/10 04:13:15;;;;;;;27.63;18.80;;;4.60;99.90;;;;;;4978125;28;20445;-84
2021/12/10 04:15:42;;;;;;;33.03;19.38;;;4.60;99.90;;;;;;4978498;28;20390;-84
2021/12/10 04:18:09;;;;;;;33.53;23.20;;;4.50;99.90;;;;;;4994599;28;20042;-84
2021/12/10 04:20:35;;;;;;;32.70;21.60;;;4.50;99.90;;;;;;4994681;28;20049;-84
2021/12/10 04:23:04;;;;;;;27.92;17.70;;;4.40;99.90;;;;;;4978329;28;20102;-84
2021/12/10 04:25:31;;;;;;;34.78;21.98;;;4.50;99.90;;;;;;4977778;28;20049;-84
2021/12/10 04:28:07;;;;;;;31.80;19.20;;;4.80;99.90;;;;;;4943132;29;20106;-84
2021/12/10 04:30:39;;;;;;;28.85;21.25;;;4.50;99.90;;;;;;4958918;29;20603;-84
2021/12/10 04:33:05;;;;;;;29.90;22.50;;;4.40;99.90;;;;;;4943191;29;20047;-84
2021/12/10 04:35:31;;;;;;;28.70;21.23;;;4.40;99.90;;;;;;4943091;29;20039;-85
2021/12/10 04:37:57;;;;;;;30.42;19.58;;;4.70;99.90;;;;;;4975415;28;20505;-85
2021/12/10 04:40:23;;;;;;;25.42;18.27;;;4.40;99.90;;;;;;4974685;28;20039;-85
2021/12/10 04:42:51;;;;;;;30.35;18.33;;;4.40;99.90;;;;;;4958903;28;20043;-85
2021/12/10 04:45:18;;;;;;;21.98;11.65;;;4.40;99.90;;;;;;4975002;28;20109;-85
2021/12/10 04:47:44;;;;;;;21.77;16.08;;;4.40;99.90;;;;;;4942696;29;20043;-85
2021/12/10 04:50:11;;;;;;;21.17;13.90;;;4.30;99.90;;;;;;4974890;28;20399;-85
2021/12/10 04:52:37;;;;;;;28.73;17.95;;;4.60;99.90;;;;;;4942349;29;20049;-85
2021/12/10 04:55:07;;;;;;;17.60;10.93;;;4.20;99.90;;;;;;4958663;28;20039;-85
2021/12/10 04:57:32;;;;;;;27.40;19.63;;;4.20;99.90;;;;;;4980421;28;20027;-85
2021/12/10 04:59:59;;;;;;;20.80;13.35;;;4.10;99.90;;;;;;4964453;28;20068;-85
2021/12/10 05:02:26;;;;;;;25.35;17.90;;;4.10;99.90;;;;;;4980764;28;20097;-85
2021/12/10 05:04:56;;;;;;;19.08;10.90;;;4.00;99.90;;;;;;4997278;28;20050;-85
2021/12/10 05:07:23;;;;;;;25.67;18.00;;;4.00;99.90;;;;;;4949518;28;20409;-85
2021/12/10 05:09:48;;;;;;;20.38;12.68;;;4.20;99.90;;;;;;4964218;28;20042;-85
2021/12/10 05:12:14;;;;;;;22.00;15.65;;;3.80;99.90;;;;;;4964056;28;20401;-85
2021/12/10 05:14:40;;;;;;;24.92;16.30;;;3.80;99.90;;;;;;4964104;28;20049;-85
2021/12/10 05:17:08;;;;;;;23.10;16.35;;;3.70;99.90;;;;;;4963887;28;20077;-85
2021/12/10 05:19:36;;;;;;;20.10;15.13;;;4.30;99.90;;;;;;4964370;28;20426;-85
2021/12/10 05:22:05;;;;;;;23.45;17.35;;;3.70;99.90;;;;;;4980304;28;20042;-85
2021/12/10 05:24:31;;;;;;;19.00;12.07;;;3.50;99.90;;;;;;4996175;28;20077;-85
2021/12/10 05:26:59;;;;;;;23.70;16.63;;;3.50;99.90;;;;;;4979609;28;20406;-85
2021/12/10 05:29:25;;;;;;;23.17;14.98;;;3.60;99.90;;;;;;4964130;28;20038;-85
2021/12/10 05:31:51;;;;;;;23.35;14.85;;;3.40;99.90;;;;;;4963998;28;20049;-85
2021/12/10 05:34:17;;;;;;;18.73;11.35;;;3.40;99.90;;;;;;4964279;28;20069;-85
2021/12/10 05:36:44;;;;;;;22.65;15.50;;;3.40;99.90;;;;;;4979941;28;20038;-85
2021/12/10 05:39:11;;;;;;;23.92;14.27;;;3.30;99.90;;;;;;5009464;28;20514;-85
2021/12/10 05:41:37;;;;;;;23.30;15.68;;;3.30;99.90;;;;;;4979944;28;20042;-85
2021/12/10 05:44:05;;;;;;;23.02;15.85;;;3.30;99.90;;;;;;4975494;28;20405;-84
2021/12/10 05:46:31;;;;;;;21.25;15.07;;;3.20;99.90;;;;;;4961746;28;20039;-84
2021/12/10 05:48:57;;;;;;;25.77;17.17;;;3.10;99.90;;;;;;4973563;28;20093;-83
2021/12/10 05:51:23;;;;;;;22.70;14.00;;;3.10;99.90;;;;;;4976783;28;20042;-84
2021/12/10 05:53:50;;;;;;;23.40;15.68;;;3.00;99.90;;;;;;4993364;28;20068;-84
2021/12/10 05:56:18;;;;;;;25.25;16.98;;;3.00;99.90;;;;;;4990694;28;20107;-84
2021/12/10 05:58:44;;;;;;;22.40;14.23;;;3.00;99.90;;;;;;4959947;28;20050;-86
2021/12/10 06:01:13;;;;;;;24.13;16.38;;;3.10;99.90;;;;;;4926764;28;20070;-86
2021/12/10 06:03:49;;;;;;;24.63;15.82;;;3.60;99.90;;;;;;4952216;28;20042;-86
2021/12/10 06:06:14;;;;;;;24.17;15.90;;;2.90;99.90;;;;;;4978136;28;20054;-88
2021/12/10 06:08:40;;;;;;;26.25;15.23;;;2.90;99.90;;;;;;4940742;28;20042;-88
2021/12/10 06:11:06;;;;;;;25.70;18.20;;;2.80;99.90;;;;;;4959135;28;20520;-88
2021/12/10 06:13:33;;;;;;;25.58;16.52;;;2.90;99.90;;;;;;4958309;28;20080;-88
2021/12/10 06:15:58;;;;;;;22.98;15.65;;;2.70;99.90;;;;;;4973662;28;20034;-89
2021/12/10 06:18:24;;;;;;;22.10;15.52;;;2.70;99.90;;;;;;4958963;28;20054;-89
2021/12/10 06:20:53;;;;;;;20.33;12.48;;;2.70;99.90;;;;;;4956021;28;20042;-88
2021/12/10 06:23:20;;;;;;;22.58;13.73;;;2.80;99.90;;;;;;4973123;28;20128;-88
2021/12/10 06:25:46;;;;;;;22.58;15.48;;;3.00;99.90;;;;;;4991804;28;20096;-87
2021/12/10 06:28:13;;;;;;;23.52;16.70;;;2.70;99.90;;;;;;4967057;28;20189;-85
2021/12/10 06:30:42;;;;;;;26.10;16.27;;;2.60;99.90;;;;;;4985497;28;20053;-84
2021/12/10 06:33:11;;;;;;;23.42;14.82;;;2.60;99.90;;;;;;4987454;28;20102;-85
2021/12/10 06:35:41;;;;;;;19.17;13.45;;;2.50;99.90;;;;;;4965423;28;20038;-88
2021/12/10 06:38:13;;;;;;;19.73;13.55;;;2.50;99.90;;;;;;5008333;28;20040;-86
2021/12/10 06:40:43;;;;;;;24.38;13.85;;;2.50;99.90;;;;;;4982098;28;20050;-85
2021/12/10 06:43:11;;;;;;;20.52;14.60;;;2.50;99.90;;;;;;5016676;28;20025;-85
2021/12/10 06:45:39;;;;;;;19.63;12.02;;;3.10;99.90;;;;;;4996266;28;20069;-85
2021/12/10 06:48:07;;;;;;;20.25;12.55;;;2.50;99.90;;;;;;4977766;28;20042;-85
2021/12/10 06:50:42;;;;;;;20.80;12.63;;;2.50;99.90;;;;;;4980633;28;20053;-85
2021/12/10 06:53:10;;;;;;;21.27;13.10;;;3.30;99.90;;;;;;4998633;28;20049;-86
2021/12/10 06:55:35;;;;;;;19.50;13.02;;;2.40;99.90;;;;;;4991575;28;20042;-86
2021/12/10 06:58:03;;;;;;;20.85;13.65;;;2.40;99.90;;;;;;5006614;28;20092;-87
2021/12/10 07:00:41;;;;;;;22.40;14.18;;;2.30;99.90;;;;;;4975573;28;20494;-87
2021/12/10 07:03:08;;;;;;;20.10;13.82;;;2.30;99.90;;;;;;4995811;28;20525;-87
2021/12/10 07:05:34;;;;;;;19.95;13.35;;;2.30;99.90;;;;;;4961501;28;20042;-88
2021/12/10 07:08:00;;;;;;;19.58;12.68;;;2.30;99.90;;;;;;4994343;28;20065;-87
2021/12/10 07:10:25;;;;;;;19.92;13.93;;;2.30;99.90;;;;;;4976334;28;20092;-88
2021/12/10 07:12:51;;;;;;;20.98;12.65;;;2.30;99.90;;;;;;4980491;28;20054;-83
2021/12/10 07:15:17;;;;;;;20.88;14.15;;;2.20;99.90;;;;;;4999228;28;20050;-84
2021/12/10 07:17:46;;;;;;;18.88;11.38;;;2.20;99.90;;;;;;4983482;28;20042;-84
2021/12/10 07:20:13;;;;;;;21.15;13.05;;;3.00;99.90;;;;;;4964280;28;20269;-87
2021/12/10 07:22:39;;;;;;;14.02;8.20;;;2.50;99.90;;;;;;4978469;28;20078;-87
2021/12/10 07:25:06;;;;;;;18.33;11.73;;;2.80;99.90;;;;;;4994926;28;20061;-83
2021/12/10 07:27:32;;;;;;;19.13;11.80;;;2.20;99.90;;;;;;4979819;28;20086;-84
2021/12/10 07:29:58;;;;;;;16.08;10.23;;;2.20;99.90;;;;;;4999173;28;20050;-84
2021/12/10 07:32:24;;;;;;;18.58;12.10;;;2.20;99.90;;;;;;4965895;28;20050;-84
2021/12/10 07:34:50;;;;;;;20.52;13.13;;;2.20;99.90;;;;;;4956853;28;20031;-83
2021/12/10 07:37:15;;;;;;;21.08;12.68;;;2.20;99.90;;;;;;4972866;28;20495;-86
2021/12/10 07:39:41;;;;;;;17.70;11.48;;;2.20;99.90;;;;;;4955250;28;20035;-86
2021/12/10 07:42:08;;;;;;;22.35;13.60;;;2.10;99.90;;;;;;4970006;28;20039;-85
2021/12/10 07:44:35;;;;;;;19.98;12.98;;;2.10;99.90;;;;;;4980591;28;20074;-87
2021/12/10 07:47:08;;;;;;;17.50;12.15;;;3.00;99.90;;;;;;4992503;28;20238;-85
2021/12/10 07:49:34;;;;;;;20.02;11.68;;;2.20;99.90;;;;;;5004155;28;20073;-85
2021/12/10 07:52:00;;;;;;;27.98;11.70;;;2.20;99.90;;;;;;4970176;28;20093;-86
2021/12/10 07:54:26;;;;;;;18.65;11.50;;;2.20;99.90;;;;;;4987495;28;20035;-85
2021/12/10 07:56:53;;;;;;;17.65;11.98;;;2.10;99.90;;;;;;4984821;28;20038;-85
2021/12/10 07:59:19;;;;;;;18.73;12.25;;;2.20;99.90;;;;;;4969667;28;20063;-83
2021/12/10 08:01:45;;;;;;;19.33;12.57;;;2.20;99.90;;;;;;4969221;28;20074;-83
2021/12/10 08:04:11;;;;;;;20.35;12.48;;;2.50;99.90;;;;;;4967059;28;20054;-83
2021/12/10 08:06:37;;;;;;;21.95;12.93;;;2.10;99.90;;;;;;4968798;28;20042;-83
2021/12/10 08:09:06;;;;;;;20.23;11.63;;;2.20;99.90;;;;;;4952743;28;20043;-83
2021/12/10 08:11:32;;;;;;;17.90;10.68;;;2.20;99.90;;;;;;4968195;28;20077;-83
2021/12/10 08:13:57;;;;;;;21.48;11.80;;;2.50;99.90;;;;;;4955958;28;20043;-83
2021/12/10 08:16:25;;;;;;;17.33;11.52;;;2.30;99.90;;;;;;4974297;28;20099;-83
2021/12/10 08:18:52;;;;;;;18.40;10.57;;;2.30;99.90;;;;;;4990222;28;20043;-83
2021/12/10 08:21:20;;;;;;;16.35;10.32;;;2.30;99.90;;;;;;4976474;28;20046;-83
2021/12/10 08:23:46;;;;;;;17.48;11.10;;;2.40;99.90;;;;;;4979470;28;20039;-83
2021/12/10 08:26:12;;;;;;;16.80;10.00;;;2.50;99.90;;;;;;5000856;28;20061;-84
2021/12/10 08:28:39;;;;;;;11.65;6.88;;;2.60;99.90;;;;;;4982857;28;20046;-84
2021/12/10 08:31:06;;;;;;;15.63;10.23;;;2.60;99.90;;;;;;4996725;28;20137;-84
2021/12/10 08:33:33;;;;;;;18.73;11.13;;;2.60;99.90;;;;;;5013506;28;20042;-84
2021/12/10 08:36:04;;;;;;;16.65;9.75;;;2.60;99.90;;;;;;4980803;28;20049;-84
2021/12/10 08:38:31;;;;;;;16.20;10.93;;;2.80;99.90;;;;;;5013051;28;20126;-84
2021/12/10 08:41:01;;;;;;;13.43;8.85;;;2.90;99.90;;;;;;4981450;28;20077;-84
2021/12/10 08:43:29;;;;;;;13.02;8.55;;;3.50;99.90;;;;;;4998517;28;20073;-84
2021/12/10 08:45:56;;;;;;;14.82;8.57;;;3.10;99.90;;;;;;4997938;28;20046;-83
2021/12/10 08:48:24;;;;;;;16.88;8.60;;;3.20;99.90;;;;;;4996991;28;20054;-84
2021/12/10 08:50:50;;;;;;;15.43;9.82;;;3.20;99.90;;;;;;5013446;28;20050;-84
2021/12/10 08:53:16;;;;;;;14.80;9.93;;;3.20;99.90;;;;;;4997458;28;20073;-84
2021/12/10 08:55:45;;;;;;;13.32;9.80;;;3.30;99.90;;;;;;4981125;28;20042;-84
2021/12/10 08:58:12;;;;;;;17.05;9.93;;;3.90;99.90;;;;;;5011732;28;20108;-83
2021/12/10 09:00:41;;;;;;;14.23;9.18;;;3.40;99.90;;;;;;4992608;28;20414;-83
2021/12/10 09:03:08;;;;;;;16.10;9.70;;;3.70;99.90;;;;;;4971296;28;20129;-84
2021/12/10 09:05:34;;;;;;;14.32;9.85;;;3.40;99.90;;;;;;5011308;28;20038;-84
2021/12/10 09:08:01;;;;;;;12.63;8.23;;;3.40;99.90;;;;;;4995213;28;20509;-83
2021/12/10 09:10:31;;;;;;;13.52;9.35;;;3.40;99.90;;;;;;4964545;28;20584;-85
2021/12/10 09:12:57;;;;;;;15.52;10.27;;;3.40;99.90;;;;;;4985323;28;20043;-87
2021/12/10 09:15:26;;;;;;;12.45;8.27;;;3.50;99.90;;;;;;4984320;28;20042;-88
2021/12/10 09:17:57;;;;;;;14.73;9.38;;;3.50;99.90;;;;;;4996890;28;20198;-87
2021/12/10 09:20:31;;;;;;;14.65;9.00;;;3.50;99.90;;;;;;4996056;28;20050;-87
2021/12/10 09:22:57;;;;;;;14.95;8.93;;;3.50;99.90;;;;;;4997819;28;20034;-87
2021/12/10 09:25:23;;;;;;;14.38;9.10;;;3.60;99.90;;;;;;4948803;28;20034;-88
2021/12/10 09:27:49;;;;;;;13.93;8.68;;;3.60;99.90;;;;;;4981035;28;20038;-87
2021/12/10 09:30:19;;;;;;;14.57;8.18;;;3.60;99.90;;;;;;4946932;28;20569;-87
2021/12/10 09:32:46;;;;;;;14.10;8.70;;;3.60;99.90;;;;;;4983057;28;20092;-86
2021/12/10 09:35:14;;;;;;;14.68;8.40;;;3.70;99.90;;;;;;4982409;28;20046;-87
2021/12/10 09:37:41;;;;;;;12.57;8.05;;;3.70;99.90;;;;;;4963692;28;20066;-87
2021/12/10 09:40:13;;;;;;;16.23;9.23;;;3.70;99.90;;;;;;4964301;28;20038;-87
2021/12/10 09:42:41;;;;;;;13.85;9.13;;;3.70;99.90;;;;;;4981365;28;20043;-87
2021/12/10 09:45:10;;;;;;;14.63;8.63;;;3.80;99.90;;;;;;4979931;28;20046;-87
2021/12/10 09:47:37;;;;;;;14.57;8.18;;;3.80;99.90;;;;;;4982396;28;20152;-88
2021/12/10 09:50:05;;;;;;;12.90;7.60;;;3.90;99.90;;;;;;4974851;28;20038;-86
2021/12/10 09:52:32;;;;;;;11.32;7.63;;;4.00;99.90;;;;;;4986023;28;20401;-88
2021/12/10 09:54:59;;;;;;;12.68;8.05;;;4.50;99.90;;;;;;4972442;28;20457;-83
2021/12/10 09:57:31;;;;;;;12.18;7.38;;;4.00;99.90;;;;;;4992427;28;20046;-82
2021/12/10 09:59:59;;;;;;;11.65;6.90;;;4.10;99.90;;;;;;4996075;28;20035;-82
2021/12/10 10:02:26;;;;;;;13.35;7.80;;;4.10;99.90;;;;;;4985376;28;20418;-84
2021/12/10 10:04:53;;;;;;;11.38;6.63;;;4.20;99.90;;;;;;4965475;28;20069;-83
2021/12/10 10:07:24;;;;;;;11.75;6.88;;;4.20;99.90;;;;;;4980747;28;20043;-82
2021/12/10 10:09:55;;;;;;;13.35;7.82;;;4.30;99.90;;;;;;4978624;28;20042;-83
2021/12/10 10:12:28;;;;;;;12.38;6.47;;;4.40;99.90;;;;;;4975572;28;20042;-83
2021/12/10 10:14:54;;;;;;;10.65;6.50;;;4.60;99.90;;;;;;4959868;28;20058;-83
2021/12/10 10:17:22;;;;;;;10.30;5.72;;;4.40;99.90;;;;;;4968808;28;20042;-83
2021/12/10 10:19:50;;;;;;;10.60;6.40;;;4.50;99.90;;;;;;4980584;28;20046;-83
2021/12/10 10:22:20;;;;;;;9.30;5.07;;;4.50;99.90;;;;;;4986166;28;20092;-83
2021/12/10 10:24:46;;;;;;;12.73;7.32;;;4.50;99.90;;;;;;4982493;28;20088;-83
2021/12/10 10:27:18;;;;;;;10.57;6.90;;;4.60;99.90;;;;;;4965092;28;20042;-83
2021/12/10 10:29:52;;;;;;;10.50;6.77;;;4.60;99.90;;;;;;4966316;28;20478;-83
2021/12/10 10:32:21;;;;;;;11.95;7.15;;;4.60;99.90;;;;;;4965183;28;20047;-83
2021/12/10 10:34:55;;;;;;;10.93;7.32;;;4.70;99.90;;;;;;4964227;28;20043;-83
2021/12/10 10:37:22;;;;;;;10.20;6.70;;;4.70;99.90;;;;;;4979745;28;20475;-83
2021/12/10 10:39:49;;;;;;;8.65;4.68;;;4.70;99.90;;;;;;4963264;28;20042;-83
2021/12/10 10:42:20;;;;;;;10.63;6.68;;;4.80;99.90;;;;;;4976957;28;20086;-82
2021/12/10 10:44:47;;;;;;;11.32;5.93;;;4.80;99.90;;;;;;4963614;28;20039;-82
2021/12/10 10:47:14;;;;;;;11.32;6.25;;;4.80;99.90;;;;;;4965571;28;20039;-82
2021/12/10 10:49:44;;;;;;;11.48;6.50;;;4.90;99.90;;;;;;4981121;28;20383;-82
2021/12/10 10:52:15;;;;;;;10.98;6.57;;;4.80;99.90;;;;;;4980835;28;20057;-82
2021/12/10 10:54:41;;;;;;;12.02;5.93;;;4.90;99.90;;;;;;4981839;28;20039;-82
2021/12/10 10:57:25;;;;;;;12.98;6.25;;;4.90;99.90;;;;;;4981268;28;20081;-82
2021/12/10 10:59:57;;;;;;;12.32;6.30;;;4.90;99.90;;;;;;4966026;28;20089;-82
2021/12/10 11:02:38;;;;;;;10.98;6.03;;;4.90;99.90;;;;;;4998311;28;20053;-82
2021/12/10 11:05:11;;;;;;;10.13;4.80;;;5.00;99.90;;;;;;4981542;28;20042;-82
2021/12/10 11:07:49;;;;;;;9.25;5.70;;;4.90;99.90;;;;;;4981518;28;20053;-82
2021/12/10 11:10:28;;;;;;;11.02;5.70;;;4.90;99.90;;;;;;4980202;28;20070;-82
2021/12/10 11:13:06;;;;;;;9.65;5.47;;;5.00;99.90;;;;;;4980959;28;20038;-82
2021/12/10 11:15:31;;;;;;;11.05;6.20;;;5.00;99.90;;;;;;4966592;28;20038;-82
2021/12/10 11:17:57;;;;;;;12.15;5.05;;;5.00;99.90;;;;;;4982213;28;20567;-82
2021/12/10 11:20:33;;;;;;;11.10;6.07;;;5.00;99.90;;;;;;4997116;28;20042;-82
2021/12/10 11:23:03;;;;;;;9.45;5.38;;;5.10;99.90;;;;;;4981605;28;20561;-82
2021/12/10 11:25:41;;;;;;;10.57;5.55;;;5.10;99.90;;;;;;4996647;28;20042;-82
2021/12/10 11:28:19;;;;;;;8.52;5.00;;;5.20;99.90;;;;;;4980870;28;20048;-82
2021/12/10 11:30:52;;;;;;;10.57;5.40;;;5.20;99.90;;;;;;4981740;28;20049;-82
2021/12/10 11:33:25;;;;;;;10.20;4.32;;;5.10;99.90;;;;;;4981767;28;20081;-82
2021/12/10 11:35:58;;;;;;;9.55;5.00;;;5.30;99.90;;;;;;4982264;28;20073;-82
2021/12/10 11:38:32;;;;;;;7.70;4.20;;;5.30;99.90;;;;;;4981136;28;20030;-82
2021/12/10 11:41:07;;;;;;;8.70;4.00;;;5.30;99.90;;;;;;4964178;28;20038;-82
2021/12/10 11:43:56;;;;;;;11.02;3.63;;;5.30;99.90;;;;;;4981414;28;20046;-82
2021/12/10 11:47:12;;;;;;;10.68;4.57;;;5.30;99.90;;;;;;4964546;28;20516;-82
2021/12/10 11:49:39;;;;;;;10.05;4.40;;;5.30;99.90;;;;;;4981072;28;20046;-82
2021/12/10 11:52:18;;;;;;;8.25;4.53;;;5.40;99.90;;;;;;4979603;28;20046;-82
2021/12/10 11:54:50;;;;;;;9.20;4.32;;;5.40;99.90;;;;;;4980442;28;20034;-82
2021/12/10 11:57:15;;;;;;;;;;;5.40;99.90;;;;;;4968506;28;20038;-82
2021/12/10 12:00:12;;;;;;;8.70;4.20;;;5.40;99.90;;;;;;4983736;28;20410;-82
2021/12/10 12:02:54;;;;;;;11.05;4.18;;;5.40;99.90;;;;;;4982543;28;20538;-82
2021/12/10 12:05:24;;;;;;;9.38;3.28;;;5.50;99.90;;;;;;4983403;28;20042;-82
2021/12/10 12:07:55;;;;;;;10.73;4.10;;;5.50;99.90;;;;;;4983480;28;20050;-82
2021/12/10 12:10:31;;;;;;;9.47;4.30;;;5.50;99.90;;;;;;4967167;28;20548;-82
2021/12/10 12:13:04;;;;;;;9.00;3.65;;;5.40;99.90;;;;;;4983341;28;20122;-82
2021/12/10 12:15:55;;;;;;;8.23;3.45;;;5.50;99.90;;;;;;4999692;28;20088;-82
2021/12/10 12:18:25;;;;;;;8.43;4.03;;;5.50;99.90;;;;;;4966694;28;20566;-82
2021/12/10 12:21:00;;;;;;;7.47;3.92;;;5.50;99.90;;;;;;4999674;28;20371;-82
2021/12/10 12:26:27;;;;;;;8.57;3.90;;;5.50;99.90;;;;;;4982768;28;20042;-82
2021/12/10 12:28:57;;;;;;;8.82;4.18;;;5.50;99.90;;;;;;4967302;28;20048;-82
2021/12/10 12:31:29;;;;;;;10.32;3.75;;;5.50;99.90;;;;;;4983516;28;20078;-82
2021/12/10 12:34:03;;;;;;;7.93;3.70;;;5.50;99.90;;;;;;4983407;28;20042;-82
2021/12/10 12:36:53;;;;;;;9.57;4.20;;;5.60;99.90;;;;;;4999242;28;20044;-82
2021/12/10 12:39:47;;;;;;;9.80;3.92;;;5.50;99.90;;;;;;4983069;28;20042;-82
2021/12/10 12:42:34;;;;;;;10.45;4.00;;;5.60;99.90;;;;;;4953573;28;20109;-82
2021/12/10 12:45:14;;;;;;;11.27;3.95;;;5.60;99.90;;;;;;4982801;28;20119;-82
2021/12/10 12:47:54;;;;;;;8.38;3.75;;;5.60;99.90;;;;;;4999117;28;20034;-82
2021/12/10 12:50:27;;;;;;;8.80;3.55;;;5.60;99.90;;;;;;4982210;28;20081;-82
2021/12/10 12:53:00;;;;;;;10.18;3.72;;;5.50;99.90;;;;;;4986629;28;20110;-82
2021/12/10 12:55:44;;;;;;;9.65;3.85;;;5.50;99.90;;;;;;4981181;28;20103;-82
2021/12/10 12:58:11;;;;;;;8.18;3.70;;;5.40;99.90;;;;;;4996648;28;20109;-82
2021/12/10 13:00:45;;;;;;;8.70;3.80;;;5.40;99.90;;;;;;4980811;28;20053;-82